Time;durP1;ratioP1;P1;durP2;ratioP2;P2;SDS_P1;SDS_P2;PMS_P1;PMS_P2;Temp;Humidity;BMP_temperature;BMP_pressure;BME280_temperature;BME280_humidity;BME280_pressure;Samples;Min_cycle;Max_cycle;Signal;HPM_P1;HPM_P2
2022/02/22 00:01:00;;;;;;;22.55;3.88;;;5.60;83.90;;;;;;4980185;28;20054;-70
2022/02/22 00:03:28;;;;;;;31.60;3.80;;;5.70;83.80;;;;;;4979728;28;20058;-72
2022/02/22 00:05:56;;;;;;;35.72;4.18;;;5.70;83.70;;;;;;4986575;28;20069;-71
2022/02/22 00:08:27;;;;;;;25.15;3.92;;;5.70;83.70;;;;;;4979873;28;20404;-72
2022/02/22 00:10:55;;;;;;;28.05;4.65;;;5.70;83.80;;;;;;4985392;28;20146;-70
2022/02/22 00:13:24;;;;;;;25.88;4.13;;;5.70;83.80;;;;;;4988144;28;20042;-69
2022/02/22 00:15:53;;;;;;;21.42;3.72;;;5.70;83.90;;;;;;4983529;28;20047;-70
2022/02/22 00:18:20;;;;;;;20.02;3.63;;;5.70;83.90;;;;;;4981992;28;20050;-69
2022/02/22 00:20:49;;;;;;;26.45;4.40;;;5.70;84.00;;;;;;5001202;28;20061;-71
2022/02/22 00:23:17;;;;;;;29.55;4.43;;;5.70;84.00;;;;;;4990144;28;20504;-70
2022/02/22 00:25:45;;;;;;;26.13;3.80;;;5.70;84.00;;;;;;4986870;28;20492;-70
2022/02/22 00:28:13;;;;;;;35.13;4.28;;;5.70;84.00;;;;;;4990315;28;20061;-70
2022/02/22 00:30:41;;;;;;;24.48;4.10;;;5.70;84.00;;;;;;4983408;28;20050;-70
2022/02/22 00:33:10;;;;;;;31.33;4.63;;;5.80;84.00;;;;;;4992898;28;20043;-70
2022/02/22 00:35:38;;;;;;;36.17;4.78;;;5.80;83.90;;;;;;4990264;28;20404;-70
2022/02/22 00:38:06;;;;;;;38.33;4.65;;;5.80;83.70;;;;;;4992707;28;20416;-70
2022/02/22 00:40:37;;;;;;;29.92;4.35;;;5.80;83.60;;;;;;5004736;28;20050;-70
2022/02/22 00:43:06;;;;;;;31.63;4.43;;;5.90;83.40;;;;;;4999375;28;20043;-70
2022/02/22 00:45:35;;;;;;;29.48;4.43;;;6.00;83.30;;;;;;4991807;28;20038;-70
2022/02/22 00:48:03;;;;;;;31.38;5.05;;;6.00;83.20;;;;;;5006984;28;20416;-70
2022/02/22 00:50:30;;;;;;;32.72;5.13;;;6.00;83.20;;;;;;4992268;28;20061;-70
2022/02/22 00:52:58;;;;;;;32.70;5.35;;;6.00;83.10;;;;;;4993952;28;20053;-70
2022/02/22 00:55:26;;;;;;;35.78;5.32;;;6.00;83.10;;;;;;4994245;28;20504;-70
2022/02/22 00:57:54;;;;;;;26.67;4.82;;;6.00;83.00;;;;;;5009451;28;20495;-70
2022/02/22 01:00:22;;;;;;;34.05;4.65;;;6.00;83.00;;;;;;5005458;28;20037;-70
2022/02/22 01:02:49;;;;;;;27.95;3.90;;;6.00;83.10;;;;;;5001753;28;20661;-70
2022/02/22 01:05:18;;;;;;;32.78;4.90;;;6.00;83.20;;;;;;5001296;28;20392;-71
2022/02/22 01:07:45;;;;;;;28.75;4.97;;;6.00;83.30;;;;;;4998957;28;20412;-70
2022/02/22 01:10:13;;;;;;;29.88;4.90;;;6.00;83.50;;;;;;5000737;28;20050;-70
2022/02/22 01:12:41;;;;;;;38.70;5.60;;;6.00;83.70;;;;;;4997859;28;20046;-71
2022/02/22 01:15:09;;;;;;;34.03;4.90;;;6.00;83.80;;;;;;4998666;28;20046;-69
2022/02/22 01:17:36;;;;;;;38.05;5.55;;;6.00;84.00;;;;;;5003502;28;20129;-71
2022/02/22 01:20:07;;;;;;;35.10;4.82;;;5.90;84.10;;;;;;5001475;28;20049;-70
2022/02/22 01:22:36;;;;;;;38.47;5.72;;;5.90;84.20;;;;;;4985805;28;20049;-70
2022/02/22 01:25:05;;;;;;;36.88;4.55;;;5.90;84.30;;;;;;5004261;28;20046;-69
2022/02/22 01:27:33;;;;;;;52.20;5.68;;;5.90;84.40;;;;;;4987981;28;20047;-69
2022/02/22 01:30:05;;;;;;;39.25;4.97;;;5.90;84.50;;;;;;4991527;28;20488;-69
2022/02/22 01:32:32;;;;;;;43.17;5.65;;;5.90;84.50;;;;;;4993348;28;20042;-70
2022/02/22 01:35:00;;;;;;;45.40;5.53;;;5.90;84.60;;;;;;4992903;28;20057;-70
2022/02/22 01:37:28;;;;;;;34.53;5.63;;;5.90;84.60;;;;;;4993346;28;20392;-69
2022/02/22 01:39:55;;;;;;;38.40;5.30;;;5.90;84.70;;;;;;4993029;28;20055;-69
2022/02/22 01:42:23;;;;;;;47.08;5.80;;;5.90;84.80;;;;;;4992343;28;20409;-69
2022/02/22 01:44:51;;;;;;;42.85;5.75;;;5.90;84.80;;;;;;5002995;28;20053;-69
2022/02/22 01:47:19;;;;;;;34.05;5.70;;;5.90;84.90;;;;;;4991289;28;20050;-69
2022/02/22 01:49:48;;;;;;;30.20;4.93;;;5.90;85.00;;;;;;4984196;28;20065;-69
2022/02/22 01:52:16;;;;;;;48.13;5.97;;;5.90;85.00;;;;;;4990319;28;20061;-69
2022/02/22 01:54:45;;;;;;;47.90;5.85;;;5.90;85.10;;;;;;4992758;28;20044;-69
2022/02/22 01:57:13;;;;;;;33.45;5.35;;;5.90;85.10;;;;;;4975285;28;20058;-69
2022/02/22 01:59:44;;;;;;;48.83;6.13;;;5.80;85.20;;;;;;4991584;28;20045;-69
2022/02/22 02:02:12;;;;;;;40.47;5.45;;;5.80;85.30;;;;;;4997987;28;20046;-69
2022/02/22 02:04:40;;;;;;;34.42;5.30;;;5.80;85.30;;;;;;4988735;28;20472;-69
2022/02/22 02:07:16;;;;;;;38.35;5.63;;;5.80;85.40;;;;;;4989631;28;20050;-69
2022/02/22 02:09:43;;;;;;;41.55;5.50;;;5.80;85.50;;;;;;4973497;28;20053;-69
2022/02/22 02:12:14;;;;;;;37.90;5.35;;;5.80;85.50;;;;;;5000749;28;20050;-69
2022/02/22 02:14:41;;;;;;;41.45;5.57;;;5.80;85.50;;;;;;4989166;28;20063;-69
2022/02/22 02:17:09;;;;;;;31.02;4.78;;;5.80;85.50;;;;;;4989640;28;20412;-69
2022/02/22 02:19:40;;;;;;;37.13;6.25;;;5.80;85.50;;;;;;4991071;28;20053;-69
2022/02/22 02:22:09;;;;;;;44.20;5.38;;;5.90;85.50;;;;;;4991473;28;20038;-69
2022/02/22 02:24:36;;;;;;;46.38;5.15;;;5.90;85.40;;;;;;4992562;28;20058;-69
2022/02/22 02:27:04;;;;;;;42.85;5.03;;;5.90;85.30;;;;;;4993179;28;20050;-69
2022/02/22 02:29:31;;;;;;;38.42;5.70;;;5.90;85.30;;;;;;4992442;28;20050;-69
2022/02/22 02:31:59;;;;;;;40.25;5.40;;;5.90;85.20;;;;;;4990000;28;20097;-69
2022/02/22 02:34:28;;;;;;;37.00;5.32;;;5.90;85.20;;;;;;4982918;28;20053;-70
2022/02/22 02:36:56;;;;;;;33.08;5.30;;;5.90;85.20;;;;;;4992636;28;20053;-70
2022/02/22 02:39:24;;;;;;;40.90;5.75;;;6.00;85.20;;;;;;4992151;28;20046;-70
2022/02/22 02:41:52;;;;;;;48.40;6.10;;;5.90;85.20;;;;;;4992417;28;20046;-70
2022/02/22 02:44:21;;;;;;;39.10;5.22;;;6.00;85.20;;;;;;4992191;28;20046;-70
2022/02/22 02:46:50;;;;;;;41.78;5.43;;;6.00;85.20;;;;;;4971932;28;20050;-70
2022/02/22 02:49:18;;;;;;;29.50;4.82;;;6.00;85.30;;;;;;4986169;28;20053;-70
2022/02/22 02:51:47;;;;;;;30.08;4.90;;;6.00;85.30;;;;;;4955845;28;20070;-70
2022/02/22 02:54:15;;;;;;;36.60;5.07;;;6.00;85.40;;;;;;4986130;28;20054;-70
2022/02/22 02:56:42;;;;;;;48.97;5.32;;;5.90;85.50;;;;;;4991275;28;20128;-70
2022/02/22 02:59:11;;;;;;;26.73;4.78;;;6.00;85.50;;;;;;4992544;28;20057;-70
2022/02/22 03:01:41;;;;;;;33.83;4.97;;;6.00;85.60;;;;;;4978419;28;20492;-70
2022/02/22 03:04:10;;;;;;;32.75;4.40;;;6.00;85.70;;;;;;4995784;28;20069;-70
2022/02/22 03:06:39;;;;;;;30.30;4.80;;;6.10;85.80;;;;;;4995911;28;20050;-70
2022/02/22 03:09:07;;;;;;;31.33;4.47;;;6.00;85.80;;;;;;4995378;28;20415;-70
2022/02/22 03:11:35;;;;;;;31.25;4.55;;;6.10;85.90;;;;;;4994409;28;20403;-70
2022/02/22 03:14:03;;;;;;;36.10;5.55;;;6.10;86.00;;;;;;4995576;28;20050;-70
2022/02/22 03:16:31;;;;;;;32.10;5.03;;;6.10;86.10;;;;;;4994691;28;20523;-70
2022/02/22 03:19:02;;;;;;;30.95;4.50;;;6.10;86.20;;;;;;4995412;28;20050;-70
2022/02/22 03:21:33;;;;;;;38.22;4.97;;;6.10;86.30;;;;;;4994406;28;20050;-70
2022/02/22 03:24:02;;;;;;;34.15;4.97;;;6.10;86.30;;;;;;5004396;28;20407;-68
2022/02/22 03:26:30;;;;;;;31.58;4.32;;;6.10;86.30;;;;;;5013987;28;20514;-70
2022/02/22 03:29:01;;;;;;;31.00;4.90;;;6.10;86.40;;;;;;4985140;28;20060;-70
2022/02/22 03:31:30;;;;;;;24.00;4.50;;;6.20;86.50;;;;;;4994124;28;20487;-70
2022/02/22 03:33:58;;;;;;;29.15;4.28;;;6.10;86.60;;;;;;4994456;28;20058;-70
2022/02/22 03:36:26;;;;;;;32.72;5.65;;;6.20;86.80;;;;;;4994027;28;20049;-70
2022/02/22 03:38:54;;;;;;;27.42;3.97;;;6.20;86.90;;;;;;4993905;28;20058;-70
2022/02/22 03:41:24;;;;;;;23.35;3.65;;;6.30;87.10;;;;;;4961291;28;20057;-70
2022/02/22 03:43:51;;;;;;;27.08;3.55;;;6.30;87.30;;;;;;4976802;28;20050;-70
2022/02/22 03:46:19;;;;;;;28.13;3.95;;;6.40;87.60;;;;;;4991352;28;20158;-70
2022/02/22 03:48:47;;;;;;;23.35;3.28;;;6.40;87.60;;;;;;4992312;28;20661;-69
2022/02/22 03:51:14;;;;;;;35.42;4.55;;;6.50;87.70;;;;;;4988291;28;20050;-70
2022/02/22 03:53:42;;;;;;;20.13;2.92;;;6.60;87.80;;;;;;4991430;28;20556;-70
2022/02/22 03:56:09;;;;;;;26.15;3.70;;;6.60;87.80;;;;;;4993433;28;20050;-70
2022/02/22 03:58:37;;;;;;;22.77;3.33;;;6.70;88.00;;;;;;4993059;28;20061;-69
2022/02/22 04:01:05;;;;;;;17.88;3.20;;;6.80;88.20;;;;;;4993213;28;20054;-70
2022/02/22 04:03:32;;;;;;;20.95;3.38;;;6.80;88.20;;;;;;4994745;28;20057;-70
2022/02/22 04:06:00;;;;;;;13.93;1.98;;;6.90;88.30;;;;;;4961233;28;20559;-70
2022/02/22 04:08:28;;;;;;;15.88;3.05;;;7.00;88.40;;;;;;4992590;28;20054;-70
2022/02/22 04:10:55;;;;;;;22.27;3.05;;;7.10;88.80;;;;;;4992761;28;20042;-70
2022/02/22 04:13:23;;;;;;;16.58;2.78;;;7.20;88.90;;;;;;4993281;28;20061;-69
2022/02/22 04:15:50;;;;;;;18.65;2.45;;;7.30;88.90;;;;;;4979383;28;20039;-70
2022/02/22 04:18:18;;;;;;;19.35;2.65;;;7.40;88.90;;;;;;4985227;28;20050;-70
2022/02/22 04:20:48;;;;;;;15.48;2.25;;;7.40;88.80;;;;;;4994021;28;20054;-70
2022/02/22 04:23:15;;;;;;;13.00;2.33;;;7.50;88.70;;;;;;5009391;28;20506;-70
2022/02/22 04:25:44;;;;;;;16.48;2.85;;;7.50;88.60;;;;;;4994471;28;20054;-70
2022/02/22 04:28:11;;;;;;;23.45;3.92;;;7.50;88.50;;;;;;4993228;28;20492;-69
2022/02/22 04:30:39;;;;;;;20.67;3.28;;;7.50;88.40;;;;;;4995136;28;20066;-70
2022/02/22 04:33:06;;;;;;;22.05;3.20;;;7.50;88.40;;;;;;4993038;28;20053;-70
2022/02/22 04:35:34;;;;;;;19.25;3.33;;;7.40;88.30;;;;;;4994020;28;20046;-70
2022/02/22 04:38:02;;;;;;;28.98;3.58;;;7.40;88.30;;;;;;4993663;28;20054;-70
2022/02/22 04:40:30;;;;;;;17.77;3.78;;;7.40;88.30;;;;;;4992646;28;20054;-69
2022/02/22 04:42:57;;;;;;;22.02;2.83;;;7.30;88.30;;;;;;4993570;28;20133;-69
2022/02/22 04:45:25;;;;;;;24.85;3.78;;;7.30;88.30;;;;;;4992272;28;20069;-69
2022/02/22 04:47:56;;;;;;;22.83;3.63;;;7.20;88.30;;;;;;4993843;28;20050;-69
2022/02/22 04:50:24;;;;;;;20.00;3.30;;;7.20;88.40;;;;;;4992496;28;20054;-69
2022/02/22 04:52:51;;;;;;;22.13;3.80;;;7.10;88.40;;;;;;4991881;28;20035;-69
2022/02/22 04:55:20;;;;;;;21.10;3.25;;;7.10;88.50;;;;;;5008858;28;20058;-69
2022/02/22 04:57:48;;;;;;;27.55;3.60;;;7.00;88.70;;;;;;4992375;28;20516;-69
2022/02/22 05:00:16;;;;;;;18.35;2.67;;;7.00;88.80;;;;;;4993844;28;20399;-69
2022/02/22 05:02:43;;;;;;;16.42;2.58;;;7.00;89.00;;;;;;4992181;28;20526;-69
2022/02/22 05:05:11;;;;;;;25.77;3.80;;;7.00;89.10;;;;;;4993259;28;20496;-69
2022/02/22 05:07:39;;;;;;;20.70;3.50;;;7.10;89.20;;;;;;4985997;28;20065;-70
2022/02/22 05:10:07;;;;;;;27.35;3.13;;;7.10;89.20;;;;;;4984363;28;20415;-70
2022/02/22 05:12:34;;;;;;;34.25;4.13;;;7.00;89.20;;;;;;4993111;28;20038;-70
2022/02/22 05:15:04;;;;;;;28.85;3.65;;;7.00;89.20;;;;;;4979320;28;20408;-70
2022/02/22 05:17:32;;;;;;;27.13;3.83;;;7.00;89.20;;;;;;4992754;28;20057;-70
2022/02/22 05:20:00;;;;;;;33.75;4.00;;;7.00;89.20;;;;;;4991331;28;20053;-70
2022/02/22 05:22:27;;;;;;;29.77;3.95;;;7.00;89.20;;;;;;4992620;28;20038;-70
2022/02/22 05:24:55;;;;;;;34.65;4.20;;;7.00;89.20;;;;;;4974603;28;20053;-70
2022/02/22 05:27:22;;;;;;;34.42;4.43;;;6.90;89.20;;;;;;4992045;28;20408;-70
2022/02/22 05:29:50;;;;;;;26.73;3.50;;;6.90;89.20;;;;;;4993282;28;20057;-70
2022/02/22 05:32:17;;;;;;;32.08;4.60;;;6.90;89.30;;;;;;4993052;28;20500;-69
2022/02/22 05:34:45;;;;;;;36.65;3.80;;;6.90;89.30;;;;;;4993037;28;20050;-70
2022/02/22 05:37:13;;;;;;;29.67;4.07;;;6.90;89.30;;;;;;4973958;28;20053;-68
2022/02/22 05:39:40;;;;;;;30.83;3.88;;;6.90;89.40;;;;;;4982653;28;20057;-69
2022/02/22 05:42:09;;;;;;;32.50;6.28;;;6.90;89.50;;;;;;4995968;28;20061;-69
2022/02/22 05:44:37;;;;;;;23.25;4.40;;;6.90;89.50;;;;;;4971927;28;20054;-69
2022/02/22 05:47:05;;;;;;;31.58;4.45;;;7.00;89.60;;;;;;4974384;28;20050;-69
2022/02/22 05:49:32;;;;;;;26.60;3.58;;;7.00;89.60;;;;;;4990820;28;20050;-69
2022/02/22 05:52:00;;;;;;;32.35;3.88;;;7.20;89.90;;;;;;4990749;28;20038;-68
2022/02/22 05:54:27;;;;;;;26.50;3.58;;;7.30;90.10;;;;;;4992600;28;20072;-69
2022/02/22 05:56:55;;;;;;;23.08;2.90;;;7.50;90.10;;;;;;4992719;28;20112;-69
2022/02/22 05:59:22;;;;;;;24.80;3.25;;;7.80;90.00;;;;;;4992347;28;20046;-69
2022/02/22 06:01:50;;;;;;;22.98;3.30;;;8.00;89.70;;;;;;4984290;28;20039;-69
2022/02/22 06:04:18;;;;;;;22.60;3.60;;;8.20;89.40;;;;;;4992468;28;20050;-69
2022/02/22 06:06:45;;;;;;;22.13;3.25;;;8.30;89.00;;;;;;4991495;28;20038;-69
2022/02/22 06:09:13;;;;;;;23.63;3.00;;;8.50;88.50;;;;;;4991027;28;20054;-69
2022/02/22 06:11:40;;;;;;;23.95;3.22;;;8.70;88.00;;;;;;4991220;28;20518;-69
2022/02/22 06:14:08;;;;;;;25.55;3.35;;;8.70;87.60;;;;;;4992751;28;20393;-69
2022/02/22 06:16:35;;;;;;;24.27;3.63;;;8.60;87.50;;;;;;4980841;28;20039;-69
2022/02/22 06:19:03;;;;;;;24.27;3.38;;;8.40;87.50;;;;;;4992105;28;20053;-69
2022/02/22 06:21:31;;;;;;;26.92;3.28;;;8.30;87.40;;;;;;4991876;28;20416;-70
2022/02/22 06:23:58;;;;;;;24.17;3.90;;;8.30;87.50;;;;;;4991953;28;20050;-69
2022/02/22 06:26:26;;;;;;;25.50;3.42;;;8.30;87.70;;;;;;4992316;28;20077;-69
2022/02/22 06:28:53;;;;;;;20.42;4.07;;;8.30;87.60;;;;;;4974960;28;20053;-69
2022/02/22 06:31:23;;;;;;;22.98;3.50;;;8.40;87.50;;;;;;4990669;28;20400;-69
2022/02/22 06:33:50;;;;;;;29.05;3.42;;;8.50;87.30;;;;;;4992180;28;20050;-69
2022/02/22 06:36:18;;;;;;;16.90;2.50;;;8.60;86.90;;;;;;4996870;28;20050;-70
2022/02/22 06:38:46;;;;;;;19.05;3.08;;;8.80;86.40;;;;;;4995930;28;20064;-70
2022/02/22 06:41:14;;;;;;;23.33;3.28;;;8.90;85.90;;;;;;4996405;28;20038;-70
2022/02/22 06:43:41;;;;;;;28.15;3.65;;;9.00;85.30;;;;;;4994454;28;20057;-70
2022/02/22 06:46:09;;;;;;;26.85;4.20;;;9.20;84.90;;;;;;4995841;28;20403;-70
2022/02/22 06:48:36;;;;;;;20.25;2.78;;;9.20;84.50;;;;;;4995059;28;20049;-70
2022/02/22 06:51:05;;;;;;;18.20;2.67;;;9.30;84.20;;;;;;4995857;28;20050;-70
2022/02/22 06:53:33;;;;;;;20.70;3.33;;;9.40;83.30;;;;;;5001847;28;20053;-70
2022/02/22 06:56:03;;;;;;;21.33;3.60;;;9.50;83.00;;;;;;4997942;28;20053;-69
2022/02/22 06:58:36;;;;;;;25.55;3.72;;;9.50;82.70;;;;;;4995647;28;20042;-70
2022/02/22 07:01:04;;;;;;;22.55;3.28;;;9.60;82.10;;;;;;4994309;28;20038;-69
2022/02/22 07:03:32;;;;;;;20.60;3.50;;;9.60;81.70;;;;;;4994982;28;20515;-69
2022/02/22 07:06:01;;;;;;;10.40;1.42;;;9.60;81.30;;;;;;4995346;28;20038;-70
2022/02/22 07:08:28;;;;;;;13.73;2.63;;;9.60;80.80;;;;;;4995821;28;20054;-69
2022/02/22 07:10:56;;;;;;;24.40;3.83;;;9.70;80.10;;;;;;4994078;28;20404;-69
2022/02/22 07:13:23;;;;;;;20.15;3.13;;;9.80;80.00;;;;;;4995748;28;20054;-70
2022/02/22 07:15:51;;;;;;;16.73;2.58;;;9.80;79.90;;;;;;4994059;28;20053;-70
2022/02/22 07:18:19;;;;;;;12.85;2.55;;;9.80;79.50;;;;;;4977718;28;20046;-70
2022/02/22 07:20:46;;;;;;;20.40;3.15;;;9.80;79.20;;;;;;4991888;28;20038;-70
2022/02/22 07:23:14;;;;;;;22.52;2.70;;;9.80;79.00;;;;;;4993278;28;20050;-70
2022/02/22 07:25:42;;;;;;;17.27;2.35;;;9.90;78.90;;;;;;4973101;28;20050;-70
2022/02/22 07:28:10;;;;;;;10.13;1.63;;;9.90;78.80;;;;;;4975059;28;20505;-70
2022/02/22 07:30:41;;;;;;;9.35;1.60;;;9.90;78.70;;;;;;4991298;28;20050;-71
2022/02/22 07:33:09;;;;;;;16.90;2.00;;;10.00;78.30;;;;;;4995199;28;20034;-70
2022/02/22 07:35:37;;;;;;;9.77;1.50;;;10.00;78.20;;;;;;4979144;28;20062;-71
2022/02/22 07:38:05;;;;;;;11.25;2.08;;;10.10;78.10;;;;;;4975379;28;20058;-71
2022/02/22 07:40:33;;;;;;;16.73;2.95;;;10.20;77.90;;;;;;4990123;28;20069;-71
2022/02/22 07:43:01;;;;;;;11.00;2.00;;;10.20;78.00;;;;;;4994527;28;20043;-71
2022/02/22 07:45:29;;;;;;;13.07;2.60;;;10.30;78.00;;;;;;4994921;28;20080;-71
2022/02/22 07:47:57;;;;;;;11.68;1.95;;;10.30;77.90;;;;;;4993479;28;20054;-71
2022/02/22 07:50:25;;;;;;;31.13;3.47;;;10.30;78.00;;;;;;4977388;28;20061;-71
2022/02/22 07:52:53;;;;;;;7.18;1.25;;;10.30;78.30;;;;;;4994864;28;20062;-71
2022/02/22 07:55:20;;;;;;;10.60;1.70;;;10.30;78.20;;;;;;4977515;28;20054;-71
2022/02/22 07:57:48;;;;;;;15.45;1.90;;;10.30;78.60;;;;;;4994634;28;20054;-69
2022/02/22 08:00:16;;;;;;;15.13;2.63;;;10.30;78.40;;;;;;4993281;28;20050;-70
2022/02/22 08:02:48;;;;;;;22.48;2.85;;;10.30;78.40;;;;;;4994901;28;20042;-70
2022/02/22 08:05:16;;;;;;;14.50;2.80;;;10.30;78.40;;;;;;5004258;28;20046;-71
2022/02/22 08:07:44;;;;;;;18.50;2.85;;;10.30;78.60;;;;;;4994289;28;20046;-71
2022/02/22 08:10:11;;;;;;;4.90;1.75;;;10.30;78.70;;;;;;4976785;28;20089;-70
2022/02/22 08:12:39;;;;;;;23.38;2.97;;;10.30;79.00;;;;;;4993576;28;20050;-70
2022/02/22 08:15:07;;;;;;;18.40;2.85;;;10.30;79.10;;;;;;4989476;28;20039;-70
2022/02/22 08:17:41;;;;;;;24.85;3.40;;;10.40;79.20;;;;;;4981196;28;20057;-70
2022/02/22 08:20:10;;;;;;;22.77;3.25;;;10.40;79.40;;;;;;4995161;28;20049;-70
2022/02/22 08:22:38;;;;;;;20.10;3.50;;;10.50;79.10;;;;;;4989249;28;20042;-71
2022/02/22 08:25:08;;;;;;;13.95;1.48;;;10.60;78.90;;;;;;4987638;28;20054;-71
2022/02/22 08:27:38;;;;;;;20.08;3.25;;;10.70;78.60;;;;;;5019747;28;20058;-71
2022/02/22 08:30:07;;;;;;;14.65;2.50;;;10.70;78.60;;;;;;4986599;28;20049;-71
2022/02/22 08:32:35;;;;;;;12.88;2.53;;;10.80;78.80;;;;;;4985646;28;20062;-71
2022/02/22 08:35:03;;;;;;;27.98;3.72;;;10.80;79.10;;;;;;4986235;28;20046;-71
2022/02/22 08:37:31;;;;;;;18.92;3.22;;;10.90;79.30;;;;;;4997477;28;20049;-70
2022/02/22 08:39:58;;;;;;;24.27;2.85;;;10.90;79.40;;;;;;4972616;28;20053;-71
2022/02/22 08:42:27;;;;;;;15.68;2.33;;;11.00;79.50;;;;;;4982764;28;20043;-71
2022/02/22 08:45:14;;;;;;;19.88;3.15;;;10.90;79.70;;;;;;4973806;28;20042;-70
2022/02/22 08:47:42;;;;;;;26.85;3.75;;;11.00;79.50;;;;;;4992327;28;20047;-71
2022/02/22 08:50:13;;;;;;;25.27;3.78;;;11.00;79.60;;;;;;4993893;28;20058;-71
2022/02/22 08:52:41;;;;;;;17.67;2.75;;;11.10;79.60;;;;;;4983659;28;20046;-71
2022/02/22 08:55:09;;;;;;;16.77;2.95;;;11.30;79.40;;;;;;4982781;28;20046;-70
2022/02/22 08:57:37;;;;;;;23.25;3.08;;;11.40;79.00;;;;;;4979172;28;20140;-71
2022/02/22 09:00:10;;;;;;;24.27;3.03;;;11.50;78.90;;;;;;4993610;28;20042;-69
2022/02/22 09:02:39;;;;;;;29.55;3.53;;;11.40;78.80;;;;;;5001092;28;20052;-70
2022/02/22 09:05:10;;;;;;;16.27;2.33;;;11.40;79.30;;;;;;4989909;28;20038;-72
2022/02/22 09:07:38;;;;;;;18.30;2.55;;;11.30;79.70;;;;;;4990908;28;20058;-70
2022/02/22 09:10:07;;;;;;;17.27;1.98;;;11.30;80.10;;;;;;4990973;28;20043;-70
2022/02/22 09:12:35;;;;;;;14.07;2.08;;;11.10;81.10;;;;;;4994502;28;20061;-70
2022/02/22 09:15:07;;;;;;;16.70;2.45;;;10.90;82.40;;;;;;4995428;28;20054;-69
2022/02/22 09:17:34;;;;;;;22.55;3.40;;;10.70;83.60;;;;;;4990904;28;20054;-69
2022/02/22 09:20:05;;;;;;;21.45;2.67;;;10.50;84.40;;;;;;4984204;28;20081;-69
2022/02/22 09:22:33;;;;;;;18.45;2.50;;;10.30;85.10;;;;;;4993206;28;20061;-69
2022/02/22 09:25:01;;;;;;;18.38;2.30;;;10.30;85.60;;;;;;4992872;28;20052;-70
2022/02/22 09:27:28;;;;;;;16.67;2.03;;;10.30;86.20;;;;;;4991751;28;20144;-70
2022/02/22 09:29:56;;;;;;;15.70;2.30;;;10.30;86.50;;;;;;4991773;28;20042;-70
2022/02/22 09:32:25;;;;;;;10.45;1.90;;;10.30;86.90;;;;;;4991477;28;20443;-70
2022/02/22 09:34:53;;;;;;;13.25;2.08;;;10.30;87.50;;;;;;4991738;28;20412;-70
2022/02/22 09:37:20;;;;;;;6.97;1.13;;;10.20;87.90;;;;;;4975746;28;20054;-70
2022/02/22 09:39:48;;;;;;;13.93;1.88;;;10.20;88.00;;;;;;4991219;28;20054;-69
2022/02/22 09:42:16;;;;;;;6.93;1.48;;;10.20;88.20;;;;;;4991657;28;20504;-69
2022/02/22 09:44:44;;;;;;;13.80;2.30;;;10.30;88.20;;;;;;4984822;28;20047;-69
2022/02/22 09:47:13;;;;;;;12.48;1.90;;;10.30;88.10;;;;;;4988824;28;20080;-69
2022/02/22 09:49:40;;;;;;;14.32;2.60;;;10.30;88.40;;;;;;4991022;28;20077;-69
2022/02/22 09:52:08;;;;;;;6.53;1.45;;;10.20;88.60;;;;;;4990899;28;20073;-69
2022/02/22 09:54:36;;;;;;;9.68;1.85;;;10.30;88.40;;;;;;4992911;28;20050;-69
2022/02/22 09:57:04;;;;;;;8.02;0.82;;;10.30;88.40;;;;;;4989520;28;20065;-70
2022/02/22 09:59:32;;;;;;;9.48;1.60;;;10.30;88.50;;;;;;4991761;28;20038;-69
2022/02/22 10:01:59;;;;;;;10.48;1.88;;;10.30;88.60;;;;;;4990376;28;20054;-69
2022/02/22 10:04:28;;;;;;;7.93;2.10;;;10.40;88.50;;;;;;4992066;28;20043;-69
2022/02/22 10:07:03;;;;;;;12.18;1.75;;;10.40;88.60;;;;;;4992809;28;20057;-70
2022/02/22 10:09:31;;;;;;;4.28;1.00;;;10.30;88.70;;;;;;4974366;28;20050;-70
2022/02/22 10:11:59;;;;;;;4.57;0.80;;;10.20;87.50;;;;;;4990990;28;20050;-69
2022/02/22 10:14:29;;;;;;;3.13;0.65;;;9.80;86.20;;;;;;4991253;28;20046;-69
2022/02/22 10:16:58;;;;;;;2.75;0.60;;;9.60;86.00;;;;;;4992497;28;20046;-70
2022/02/22 10:19:29;;;;;;;3.13;0.50;;;9.40;85.90;;;;;;4995226;28;20396;-70
2022/02/22 10:21:57;;;;;;;4.28;0.80;;;9.30;84.90;;;;;;4988277;28;20046;-69
2022/02/22 10:24:28;;;;;;;7.30;0.80;;;9.10;85.20;;;;;;4992547;28;20041;-68
2022/02/22 10:27:05;;;;;;;8.63;1.15;;;9.00;85.10;;;;;;4993128;28;20057;-70
2022/02/22 10:29:36;;;;;;;5.70;0.93;;;8.90;85.20;;;;;;4973122;28;20488;-74
2022/02/22 10:32:14;;;;;;;6.50;1.30;;;8.90;84.70;;;;;;4990649;28;20050;-71
2022/02/22 10:34:48;;;;;;;8.93;1.33;;;8.80;84.70;;;;;;4993596;28;20056;-70
2022/02/22 10:37:16;;;;;;;10.68;1.42;;;8.80;85.00;;;;;;5010313;28;20046;-70
2022/02/22 10:39:46;;;;;;;5.35;1.08;;;8.80;84.80;;;;;;4992481;28;20100;-70
2022/02/22 10:42:16;;;;;;;12.00;1.30;;;8.80;84.30;;;;;;4991047;28;20073;-70
2022/02/22 10:44:44;;;;;;;6.60;1.50;;;8.80;84.20;;;;;;4972468;28;20062;-69
2022/02/22 10:47:20;;;;;;;12.95;0.90;;;8.70;84.60;;;;;;4990900;28;20050;-70
2022/02/22 10:49:49;;;;;;;13.18;1.63;;;8.70;84.70;;;;;;4998107;28;20046;-71
2022/02/22 10:52:28;;;;;;;13.18;1.35;;;8.70;84.40;;;;;;5003525;28;20058;-71
2022/02/22 10:55:01;;;;;;;11.50;1.30;;;8.70;84.50;;;;;;5009998;28;20042;-70
2022/02/22 10:57:32;;;;;;;8.55;1.15;;;8.70;84.70;;;;;;4987867;28;20530;-70
2022/02/22 11:00:00;;;;;;;9.82;1.00;;;8.70;84.70;;;;;;4990996;28;20427;-70
2022/02/22 11:02:32;;;;;;;6.70;0.93;;;8.70;84.40;;;;;;4988917;28;20134;-70
2022/02/22 11:05:16;;;;;;;5.22;1.17;;;8.80;83.80;;;;;;4991913;28;20047;-71
2022/02/22 11:07:51;;;;;;;5.60;0.57;;;8.70;83.70;;;;;;4990843;28;20488;-70
2022/02/22 11:10:26;;;;;;;9.25;1.08;;;8.70;83.50;;;;;;4992395;28;20042;-70
2022/02/22 11:12:59;;;;;;;10.82;1.55;;;8.60;83.50;;;;;;4990705;28;20054;-70
2022/02/22 11:15:39;;;;;;;10.07;1.35;;;8.60;83.90;;;;;;4991010;28;20053;-70
2022/02/22 11:18:20;;;;;;;8.80;1.27;;;8.70;84.20;;;;;;4993597;28;20042;-69
2022/02/22 11:20:48;;;;;;;5.30;0.60;;;8.80;83.90;;;;;;4993516;28;20050;-70
2022/02/22 11:23:25;;;;;;;7.78;1.05;;;8.80;84.00;;;;;;4995012;28;20047;-70
2022/02/22 11:26:05;;;;;;;7.63;1.00;;;8.90;83.70;;;;;;4994682;28;20066;-70
2022/02/22 11:28:38;;;;;;;6.38;0.85;;;8.90;83.40;;;;;;4994493;28;20531;-70
2022/02/22 11:31:11;;;;;;;8.40;1.27;;;8.90;83.20;;;;;;4991130;28;20050;-72
2022/02/22 11:33:45;;;;;;;10.52;1.40;;;8.90;83.20;;;;;;4992156;28;20065;-72
2022/02/22 11:36:25;;;;;;;7.50;1.13;;;8.80;83.30;;;;;;4993903;28;20058;-73
2022/02/22 11:38:54;;;;;;;4.03;0.98;;;8.80;83.50;;;;;;4990319;28;20051;-71
2022/02/22 11:41:40;;;;;;;5.05;0.70;;;8.80;83.20;;;;;;5005571;28;20053;-71
2022/02/22 11:44:16;;;;;;;6.03;0.82;;;8.80;83.30;;;;;;4988098;28;20412;-69
2022/02/22 11:46:47;;;;;;;6.57;1.08;;;8.80;83.10;;;;;;5008688;28;20053;-70
2022/02/22 11:49:27;;;;;;;9.90;1.08;;;8.80;83.00;;;;;;4992540;28;20411;-71
2022/02/22 11:52:13;;;;;;;8.60;0.88;;;8.80;83.20;;;;;;4994392;28;20057;-70
2022/02/22 11:54:43;;;;;;;5.68;1.10;;;8.90;83.20;;;;;;4990964;28;20061;-70
2022/02/22 11:57:18;;;;;;;6.78;1.08;;;9.20;82.70;;;;;;4993825;28;20050;-71
2022/02/22 11:59:54;;;;;;;9.15;1.00;;;9.30;82.00;;;;;;4991253;28;20403;-71
2022/02/22 12:02:30;;;;;;;6.25;0.90;;;9.40;81.40;;;;;;4993065;28;20058;-71
2022/02/22 12:05:22;;;;;;;6.30;0.60;;;9.50;80.40;;;;;;4990538;28;20042;-71
2022/02/22 12:08:14;;;;;;;5.05;0.82;;;9.70;78.80;;;;;;5013274;28;20511;-70
2022/02/22 12:10:47;;;;;;;3.35;0.60;;;9.90;78.50;;;;;;4993425;28;20416;-69
2022/02/22 12:13:17;;;;;;;5.15;1.15;;;10.20;77.50;;;;;;4992722;28;20130;-70
2022/02/22 12:15:46;;;;;;;8.55;1.40;;;10.60;75.70;;;;;;4992298;28;20050;-69
2022/02/22 12:18:26;;;;;;;3.70;0.80;;;11.00;75.00;;;;;;4992786;28;20054;-70
2022/02/22 12:20:55;;;;;;;5.90;0.93;;;11.60;73.80;;;;;;4992428;28;20057;-70
2022/02/22 12:23:25;;;;;;;6.80;1.30;;;11.90;71.00;;;;;;4994221;28;20536;-71
2022/02/22 12:26:03;;;;;;;12.25;1.45;;;12.30;70.20;;;;;;4980026;28;20411;-71
2022/02/22 12:28:31;;;;;;;7.32;1.73;;;12.60;67.00;;;;;;4990553;28;20726;-70
2022/02/22 12:30:59;;;;;;;10.05;1.40;;;12.80;66.60;;;;;;4991938;28;20046;-70
2022/02/22 12:33:31;;;;;;;9.60;1.95;;;13.10;64.80;;;;;;4993380;28;20077;-71
2022/02/22 12:36:13;;;;;;;9.73;1.58;;;13.10;61.80;;;;;;4992223;28;20053;-70
2022/02/22 12:38:41;;;;;;;11.98;1.80;;;12.70;61.10;;;;;;4992202;28;20066;-70
2022/02/22 12:41:14;;;;;;;11.00;1.75;;;11.90;62.80;;;;;;4992716;28;20057;-70
2022/02/22 12:43:45;;;;;;;14.65;1.83;;;11.40;65.80;;;;;;5001069;28;20515;-70
2022/02/22 12:46:14;;;;;;;8.48;1.60;;;11.10;67.40;;;;;;4995635;28;20050;-69
2022/02/22 12:48:42;;;;;;;9.77;1.88;;;11.20;67.20;;;;;;4992070;28;20065;-69
2022/02/22 12:51:23;;;;;;;11.43;1.80;;;11.30;65.70;;;;;;4991742;28;20492;-70
2022/02/22 12:54:05;;;;;;;13.75;2.15;;;11.20;65.70;;;;;;4990878;28;20507;-69
2022/02/22 12:56:51;;;;;;;10.13;1.70;;;11.00;66.90;;;;;;4986717;28;21048;-70